Legend :    VFR   Marginal VFR   IFR   Intensive IFR   Very Intensive IFR
Visi :
Ceiling :
>= 8 km
>= 3000ft
5 to 8 km
1000 to 3000 ft
1500m to 5 km
500 to 1000 ft
800 to 1500m
200 to 500 ft
< 800m
< 200 ft
Symbols :   Thunderstorms  Fog  Heavy snow  Heavy precipitations  Wind > 20 kt
SIGMETs :     Misc.  Thunderstorms  Icing  Turbulence  Mountain Waves  Volcanic Ashes






- Airport Elevation : 876 ft
- IATA code : MBX


LJMB - Maribor

CURRENT METAR :
  • 241130Z 20004KT 150V260 9999 FEW026 SCT050 BKN090 12/02 Q1023

EXPIRED METARs :
  • 241100Z 19005KT 160V220 9999 FEW023 SCT060 BKN100 12/02 Q1023
  • 241030Z 08004KT 040V140 9999 FEW023 SCT100 12/02 Q1023
  • 241000Z 22001KT 9999 FEW020 SCT120 11/02 Q1024
  • 240930Z 19005KT 130V210 9999 FEW020 SCT120 10/04 Q1023
  • 240900Z 16005KT 140V200 9999 FEW016 BKN100 09/04 Q1023 R32/CLRD//

TAF TAF LJMB
Valid from the 24 at 12:00 until the 25 at 12:00 UTC


241100Z 2412/2512 01005KT 9999 SCT050
TEMPO 2412/2418 11005KT BKN050
BECMG 2415/2417 18005KT CAVOK
TEMPO 2416/2506 20010KT
BECMG 2506/2509 21012KT
TEMPO 2509/2512 21017G30KT


LOGIN :  

Disclaimer |     EN      FR      IT